createdAt,value
2022-11-12T00:03:05.071Z,6.75
2022-11-12T00:13:07.816Z,5.75
2022-11-12T00:23:11.798Z,6.57
2022-11-12T00:33:14.437Z,6.75
2022-11-12T00:43:18.501Z,5.78
2022-11-12T00:53:21.101Z,5.95
2022-11-12T01:03:25.605Z,5.88
2022-11-12T01:13:28.317Z,5.88
2022-11-12T01:23:33.778Z,5.35
2022-11-12T01:33:36.479Z,5.30
2022-11-12T01:43:40.495Z,5.03
2022-11-12T01:53:46.810Z,5.45
2022-11-12T02:03:50.797Z,5.38
2022-11-12T02:14:01.718Z,4.38
2022-11-12T02:34:09.284Z,3.85
2022-11-12T02:44:13.249Z,4.13
2022-11-12T02:54:15.858Z,4.45
2022-11-12T03:04:19.878Z,4.85
2022-11-12T03:14:23.072Z,3.70
2022-11-12T03:24:28.113Z,3.65
2022-11-12T03:34:30.774Z,3.85
2022-11-12T03:44:35.657Z,4.18
2022-11-12T03:54:38.411Z,4.15
2022-11-12T04:04:59.850Z,3.67
2022-11-12T04:15:02.492Z,4.03
2022-11-12T04:25:24.638Z,3.53
2022-11-12T04:35:28.522Z,3.28
2022-11-12T04:45:32.519Z,3.65
2022-11-12T04:55:35.357Z,3.28
2022-11-12T05:05:39.311Z,3.83
2022-11-12T05:15:41.937Z,3.40
2022-11-12T05:25:45.890Z,3.63
2022-11-12T05:35:48.523Z,3.80
2022-11-12T05:45:52.541Z,4.13
2022-11-12T05:55:55.168Z,3.90
2022-11-12T06:05:59.369Z,4.25
2022-11-12T06:16:02.047Z,3.65
2022-11-12T06:26:06.161Z,3.92
2022-11-12T06:36:10.035Z,4.28
2022-11-12T06:46:15.990Z,3.95
2022-11-12T06:56:18.932Z,4.75
2022-11-12T07:06:22.899Z,5.75
2022-11-12T07:16:25.618Z,6.03
2022-11-12T07:26:29.588Z,6.20
2022-11-12T07:36:32.219Z,6.38
2022-11-12T07:46:36.316Z,5.65
2022-11-12T07:56:38.956Z,6.88
2022-11-12T08:06:43.094Z,7.25
2022-11-12T08:16:46.578Z,8.38
2022-11-12T08:26:50.526Z,7.68
2022-11-12T08:36:53.158Z,7.60
2022-11-12T08:46:57.191Z,8.32
2022-11-12T08:56:59.862Z,8.90
2022-11-12T09:07:05.179Z,10.13
2022-11-12T09:17:09.622Z,8.50
2022-11-12T09:27:13.702Z,8.95
2022-11-12T09:37:16.407Z,8.95
2022-11-12T09:47:24.510Z,9.95
2022-11-12T09:57:27.196Z,9.15
2022-11-12T10:07:43.534Z,8.85
2022-11-12T10:17:52.423Z,9.10
2022-11-12T10:27:57.433Z,8.43
2022-11-12T10:38:03.544Z,9.13
2022-11-12T10:48:27.003Z,8.65
2022-11-12T10:58:30.550Z,8.68
2022-11-12T11:08:38.088Z,8.18
2022-11-12T11:18:43.623Z,8.50
2022-11-12T11:28:56.396Z,8.98
2022-11-12T11:39:03.294Z,8.13
2022-11-12T11:49:23.863Z,7.80
2022-11-12T11:59:40.011Z,8.40
2022-11-12T12:09:52.126Z,7.72
2022-11-12T12:20:06.231Z,8.38
2022-11-12T12:30:19.254Z,7.75
2022-11-12T12:40:24.538Z,7.50
2022-11-12T12:50:29.076Z,7.55
2022-11-12T13:00:39.236Z,7.38
2022-11-12T13:10:52.755Z,7.50
2022-11-12T13:21:12.163Z,6.85
2022-11-12T13:31:28.565Z,7.15
2022-11-12T13:41:48.647Z,6.80
2022-11-12T13:51:53.225Z,5.75
2022-11-12T14:01:56.736Z,6.22
2022-11-12T14:12:24.595Z,6.65
2022-11-12T14:22:36.289Z,6.63
2022-11-12T14:32:42.158Z,7.13
2022-11-12T14:42:45.191Z,7.07
2022-11-12T14:52:52.087Z,7.10
2022-11-12T15:02:59.542Z,8.10
2022-11-12T15:13:09.341Z,11.30
2022-11-12T15:23:18.671Z,12.20
2022-11-12T15:43:29.452Z,9.15
2022-11-12T15:53:33.623Z,10.65
2022-11-12T16:03:36.243Z,10.32
2022-11-12T16:13:40.476Z,11.45
2022-11-12T16:23:43.098Z,13.02
2022-11-12T16:33:47.093Z,14.48
2022-11-12T16:43:49.693Z,12.30
2022-11-12T16:53:53.623Z,11.88
2022-11-12T17:03:58.088Z,12.25
2022-11-12T17:14:02.564Z,11.60
2022-11-12T17:24:05.417Z,13.65
2022-11-12T17:34:09.395Z,12.88
2022-11-12T17:44:16.912Z,11.57
2022-11-12T17:54:21.571Z,11.77
2022-11-12T18:04:25.110Z,12.50
2022-11-12T18:14:30.525Z,12.00
2022-11-12T18:24:33.195Z,12.75
2022-11-12T18:34:41.742Z,11.73
2022-11-12T18:44:44.420Z,10.90
2022-11-12T18:54:48.461Z,9.38
2022-11-12T19:04:51.107Z,10.77
2022-11-12T19:14:55.234Z,10.80
2022-11-12T19:24:57.882Z,9.88
2022-11-12T19:35:01.932Z,10.07
2022-11-12T19:45:05.567Z,9.82
2022-11-12T19:55:09.903Z,10.50
2022-11-12T20:05:12.510Z,11.15
2022-11-12T20:15:16.463Z,11.90
2022-11-12T20:25:19.229Z,12.38
2022-11-12T20:35:23.418Z,12.75
2022-11-12T20:45:27.111Z,12.50
2022-11-12T20:55:32.642Z,11.90
2022-11-12T21:05:35.476Z,11.32
2022-11-12T21:15:39.504Z,11.98
2022-11-12T21:25:42.307Z,13.00
2022-11-12T21:35:52.625Z,14.23
2022-11-12T21:45:55.476Z,18.23
2022-11-12T21:56:03.869Z,13.05
2022-11-12T22:06:08.019Z,11.27
2022-11-12T22:16:14.717Z,10.32
2022-11-12T22:26:20.532Z,9.27
2022-11-12T22:36:26.507Z,7.78
2022-11-12T22:46:30.733Z,8.07
2022-11-12T22:56:34.719Z,7.75
2022-11-12T23:06:37.508Z,6.63
2022-11-12T23:16:41.650Z,6.05
2022-11-12T23:26:44.343Z,6.82
2022-11-12T23:36:48.364Z,7.03
2022-11-12T23:46:51.037Z,7.57
2022-11-12T23:56:55.139Z,7.55
